Time;durP1;ratioP1;P1;durP2;ratioP2;P2;SDS_P1;SDS_P2;PMS_P1;PMS_P2;Temp;Humidity;BMP_temperature;BMP_pressure;BME280_temperature;BME280_humidity;BME280_pressure;Samples;Min_cycle;Max_cycle;Signal;HPM_P1;HPM_P2
2023/06/23 00:01:34;;;;;;;1.80;1.70;;;17.20;99.90;;;;;;4988826;28;20118;-91
2023/06/23 00:04:02;;;;;;;1.88;1.77;;;17.40;99.90;;;;;;4977115;28;20122;-93
2023/06/23 00:06:30;;;;;;;1.90;1.80;;;17.50;99.90;;;;;;4992091;28;21119;-92
2023/06/23 00:09:01;;;;;;;1.90;1.80;;;17.40;99.90;;;;;;4975364;28;20113;-92
2023/06/23 00:11:29;;;;;;;1.90;1.80;;;17.50;99.90;;;;;;5006951;28;20502;-92
2023/06/23 00:13:56;;;;;;;1.90;1.80;;;17.40;99.90;;;;;;4984077;28;20049;-91
2023/06/23 00:16:22;;;;;;;1.90;1.80;;;17.50;99.90;;;;;;5006598;28;20046;-91
2023/06/23 00:18:51;;;;;;;1.88;1.77;;;17.60;99.90;;;;;;4999052;28;20491;-92
2023/06/23 00:21:19;;;;;;;1.90;1.80;;;17.50;99.90;;;;;;5023595;28;20038;-89
2023/06/23 00:24:00;;;;;;;1.90;1.80;;;17.40;99.90;;;;;;5014438;28;20050;-90
2023/06/23 00:26:26;;;;;;;1.90;1.80;;;17.70;99.90;;;;;;4997405;28;20049;-91
2023/06/23 00:28:52;;;;;;;1.90;1.80;;;17.60;99.90;;;;;;4992322;28;20054;-91
2023/06/23 00:31:17;;;;;;;1.80;1.70;;;17.50;99.90;;;;;;4991334;28;20450;-92
2023/06/23 00:33:47;;;;;;;1.80;1.70;;;17.70;99.90;;;;;;5004590;28;20054;-91
2023/06/23 00:36:16;;;;;;;1.80;1.70;;;17.60;99.90;;;;;;5004973;28;20881;-90
2023/06/23 00:38:44;;;;;;;1.80;1.70;;;17.50;99.90;;;;;;4994010;28;20057;-90
2023/06/23 00:41:30;;;;;;;1.90;1.80;;;17.50;99.90;;;;;;4981201;28;20054;-93
2023/06/23 00:44:05;;;;;;;1.90;1.80;;;17.80;99.90;;;;;;4982446;28;20061;-90
2023/06/23 00:46:37;;;;;;;1.90;1.80;;;17.60;99.90;;;;;;4978623;28;20806;-92
2023/06/23 00:49:05;;;;;;;2.00;1.90;;;17.50;99.90;;;;;;4996136;28;20062;-91
2023/06/23 00:51:31;;;;;;;1.90;1.80;;;17.80;99.90;;;;;;4997104;28;20606;-93
2023/06/23 00:54:00;;;;;;;2.00;1.90;;;17.80;99.90;;;;;;4999010;28;20060;-93
2023/06/23 00:56:27;;;;;;;1.83;1.73;;;17.70;99.90;;;;;;4996662;28;20452;-91
2023/06/23 00:58:54;;;;;;;2.00;1.90;;;17.50;99.90;;;;;;5002063;28;20060;-92
2023/06/23 01:01:20;;;;;;;1.90;1.80;;;17.40;99.90;;;;;;4989674;28;20073;-90
2023/06/23 01:03:52;;;;;;;1.83;1.73;;;17.40;99.90;;;;;;4987764;28;20506;-95
2023/06/23 01:10:33;;;;;;;1.85;1.75;;;17.40;99.90;;;;;;5002917;28;20061;-90
2023/06/23 01:16:15;;;;;;;2.00;1.90;;;17.60;99.90;;;;;;4997853;28;20050;-93
2023/06/23 01:19:12;;;;;;;2.00;1.90;;;17.60;99.90;;;;;;4986967;28;20058;-93
2023/06/23 01:22:02;;;;;;;1.88;1.77;;;17.60;99.90;;;;;;4985938;28;20129;-94
2023/06/23 01:28:48;;;;;;;1.85;1.75;;;17.60;99.90;;;;;;5005192;28;20054;-95
2023/06/23 01:31:44;;;;;;;1.90;1.80;;;17.40;99.90;;;;;;5007904;28;20042;-93
2023/06/23 01:34:24;;;;;;;1.77;1.67;;;17.60;99.90;;;;;;4987124;28;20061;-90
2023/06/23 01:40:46;;;;;;;;;;;;;;;;;;;;;
2023/06/23 01:43:37;;;;;;;1.70;1.60;;;17.50;99.90;;;;;;4966272;28;20054;-92
2023/06/23 01:49:52;;;;;;;1.60;1.50;;;17.50;99.90;;;;;;4942176;28;20139;-91
2023/06/23 01:52:52;;;;;;;1.60;1.50;;;17.60;99.90;;;;;;4930415;29;20040;-95
2023/06/23 01:55:22;;;;;;;1.65;1.55;;;17.70;99.90;;;;;;4930095;29;20039;-93
2023/06/23 01:58:17;;;;;;;1.70;1.60;;;17.50;99.90;;;;;;4926443;29;20046;-94
2023/06/23 02:11:58;;;;;;;1.42;1.38;;;17.70;99.90;;;;;;4956089;29;20528;-94
2023/06/23 02:15:03;;;;;;;1.55;1.45;;;17.40;99.90;;;;;;4925110;29;20075;-94
2023/06/23 02:26:26;;;;;;;;;;;;;;;;;;;;;
2023/06/23 02:37:43;;;;;;;1.23;1.23;;;17.40;99.90;;;;;;4829634;29;20052;-96
2023/06/23 02:44:41;;;;;;;;;;;;;;;;;;;;;
2023/06/23 02:51:19;;;;;;;1.23;1.23;;;17.60;99.90;;;;;;4825871;29;20050;-95
2023/06/23 02:54:17;;;;;;;1.20;1.20;;;17.40;99.90;;;;;;4874591;29;20086;-93
2023/06/23 02:56:46;;;;;;;1.20;1.20;;;17.50;99.90;;;;;;4905904;29;20059;-94
2023/06/23 02:59:22;;;;;;;1.20;1.20;;;17.40;99.90;;;;;;4949865;28;21355;-91
2023/06/23 03:01:58;;;;;;;1.17;1.17;;;17.30;99.90;;;;;;4993255;28;20049;-92
2023/06/23 03:04:34;;;;;;;1.23;1.23;;;17.30;99.90;;;;;;5011646;28;20034;-94
2023/06/23 03:07:01;;;;;;;1.20;1.20;;;17.30;99.90;;;;;;4997710;28;20049;-91
2023/06/23 03:09:27;;;;;;;1.20;1.20;;;17.40;99.90;;;;;;4992435;28;20280;-92
2023/06/23 03:11:52;;;;;;;1.20;1.20;;;17.20;99.90;;;;;;5012551;28;20136;-92
2023/06/23 03:14:18;;;;;;;1.13;1.13;;;17.40;99.90;;;;;;4994057;28;20041;-91
2023/06/23 03:16:48;;;;;;;1.10;1.10;;;17.10;99.90;;;;;;5010176;28;21434;-91
2023/06/23 03:19:33;;;;;;;1.10;1.10;;;17.30;99.90;;;;;;4981010;28;20053;-89
2023/06/23 03:22:12;;;;;;;1.13;1.13;;;17.40;99.90;;;;;;4990489;28;20038;-90
2023/06/23 03:24:41;;;;;;;1.10;1.10;;;17.40;99.90;;;;;;5006751;28;20037;-89
2023/06/23 03:27:09;;;;;;;1.15;1.15;;;17.20;99.90;;;;;;4994996;28;20034;-88
2023/06/23 03:29:59;;;;;;;1.10;1.10;;;17.40;99.90;;;;;;4996379;28;20358;-95
2023/06/23 03:32:28;;;;;;;1.10;1.10;;;17.30;99.90;;;;;;4992940;28;20042;-91
2023/06/23 03:35:12;;;;;;;1.10;1.10;;;17.30;99.90;;;;;;4996735;28;20845;-87
2023/06/23 03:37:43;;;;;;;1.20;1.20;;;17.30;99.90;;;;;;4997025;28;20452;-89
2023/06/23 03:40:13;;;;;;;1.05;1.05;;;17.20;99.90;;;;;;4985730;28;20045;-88
2023/06/23 03:42:51;;;;;;;1.00;1.00;;;17.30;99.90;;;;;;4981399;28;20074;-94
2023/06/23 03:45:19;;;;;;;1.05;1.05;;;17.10;99.90;;;;;;5023610;28;20396;-90
2023/06/23 03:47:48;;;;;;;1.10;1.10;;;17.30;99.90;;;;;;5002177;28;20542;-92
2023/06/23 03:50:19;;;;;;;1.00;1.00;;;17.10;99.90;;;;;;4992668;28;20060;-93
2023/06/23 03:52:49;;;;;;;1.08;1.08;;;17.20;99.90;;;;;;5004488;28;20419;-89
2023/06/23 03:55:17;;;;;;;1.00;1.00;;;17.20;99.90;;;;;;5008536;28;20042;-90
2023/06/23 03:57:44;;;;;;;1.00;1.00;;;17.10;99.90;;;;;;4989088;28;20064;-90
2023/06/23 04:00:11;;;;;;;1.00;1.00;;;17.20;99.90;;;;;;5009204;28;20041;-89
2023/06/23 04:02:45;;;;;;;1.02;1.02;;;17.20;99.90;;;;;;4991304;28;20049;-93
2023/06/23 04:05:13;;;;;;;1.00;1.00;;;17.20;99.90;;;;;;5006176;28;20069;-91
2023/06/23 04:07:44;;;;;;;1.00;1.00;;;17.00;99.90;;;;;;4989572;28;20057;-91
2023/06/23 04:10:12;;;;;;;1.05;1.05;;;17.00;99.90;;;;;;4981997;28;20060;-89
2023/06/23 04:12:38;;;;;;;1.00;1.00;;;17.00;99.90;;;;;;5008445;28;20379;-88
2023/06/23 04:15:07;;;;;;;1.00;1.00;;;17.20;99.90;;;;;;4996647;28;20054;-90
2023/06/23 04:17:36;;;;;;;1.10;1.10;;;17.00;99.90;;;;;;5003797;28;20140;-92
2023/06/23 04:20:03;;;;;;;1.00;1.00;;;17.00;99.90;;;;;;4992618;28;20461;-90
2023/06/23 04:22:30;;;;;;;1.10;1.10;;;17.20;99.90;;;;;;4994805;28;20037;-90
2023/06/23 04:24:58;;;;;;;1.02;1.02;;;17.00;99.90;;;;;;5003205;28;20407;-90
2023/06/23 04:27:25;;;;;;;1.00;1.00;;;17.20;99.90;;;;;;4993581;28;20489;-91
2023/06/23 04:29:53;;;;;;;1.10;1.10;;;17.10;99.90;;;;;;4993225;28;20045;-90
2023/06/23 04:32:21;;;;;;;1.08;1.08;;;17.00;99.90;;;;;;5000966;28;20034;-92
2023/06/23 04:34:47;;;;;;;1.05;1.05;;;17.10;99.90;;;;;;5004249;28;20081;-90
2023/06/23 04:37:39;;;;;;;1.08;1.08;;;17.30;99.90;;;;;;4984470;28;20042;-91
2023/06/23 04:40:20;;;;;;;1.05;1.05;;;17.40;99.90;;;;;;5007517;28;20557;-90
2023/06/23 04:42:53;;;;;;;1.02;1.02;;;17.30;99.90;;;;;;5004855;28;20661;-90
2023/06/23 04:45:30;;;;;;;1.10;1.10;;;17.30;99.90;;;;;;4993773;28;20057;-95
2023/06/23 04:48:09;;;;;;;1.05;1.05;;;17.30;99.90;;;;;;4993968;28;20041;-93
2023/06/23 04:50:36;;;;;;;1.05;1.05;;;17.30;99.90;;;;;;5010653;28;20045;-91
2023/06/23 04:53:06;;;;;;;1.05;1.05;;;17.30;99.90;;;;;;4988170;28;20422;-89
2023/06/23 04:55:35;;;;;;;1.08;1.08;;;17.50;99.90;;;;;;4993850;28;20080;-92
2023/06/23 04:58:04;;;;;;;1.05;1.05;;;17.30;99.90;;;;;;4990875;28;20040;-91
2023/06/23 05:00:32;;;;;;;1.05;1.05;;;17.50;99.90;;;;;;4997190;28;20045;-90
2023/06/23 05:02:59;;;;;;;1.00;1.00;;;17.40;99.90;;;;;;5009269;28;20045;-87
2023/06/23 05:05:27;;;;;;;1.00;1.00;;;17.50;99.90;;;;;;5009814;28;20080;-90
2023/06/23 05:07:55;;;;;;;1.00;1.00;;;17.40;99.90;;;;;;5011493;28;20053;-90
2023/06/23 05:10:23;;;;;;;1.10;1.10;;;17.70;99.90;;;;;;5008157;28;20461;-89
2023/06/23 05:12:51;;;;;;;1.08;1.08;;;17.70;99.90;;;;;;5007080;28;20132;-92
2023/06/23 05:15:19;;;;;;;1.00;1.00;;;17.70;99.90;;;;;;4985165;28;20033;-88
2023/06/23 05:17:47;;;;;;;1.00;1.00;;;17.70;99.90;;;;;;5008192;28;20049;-90
2023/06/23 05:20:14;;;;;;;1.05;1.05;;;17.80;99.90;;;;;;4989216;28;20041;-89
2023/06/23 05:22:45;;;;;;;1.00;1.00;;;17.80;99.90;;;;;;4995316;28;20057;-89
2023/06/23 05:25:11;;;;;;;1.00;1.00;;;17.80;99.90;;;;;;5020313;28;20418;-89
2023/06/23 05:27:39;;;;;;;1.00;1.00;;;17.70;99.90;;;;;;4992480;28;20507;-89
2023/06/23 05:30:07;;;;;;;1.02;1.02;;;17.90;99.90;;;;;;4992395;28;20062;-88
2023/06/23 05:32:36;;;;;;;0.98;0.98;;;17.90;99.90;;;;;;5004326;28;20643;-89
2023/06/23 05:35:04;;;;;;;1.00;1.00;;;17.90;99.90;;;;;;4993687;28;20157;-93
2023/06/23 05:37:33;;;;;;;1.00;1.00;;;17.90;99.90;;;;;;4993136;28;20034;-87
2023/06/23 05:40:01;;;;;;;1.00;1.00;;;17.70;99.90;;;;;;5009474;28;20430;-87
2023/06/23 05:42:29;;;;;;;1.00;1.00;;;17.90;99.90;;;;;;5008207;28;20049;-89
2023/06/23 05:44:55;;;;;;;1.00;1.00;;;17.90;99.90;;;;;;5008557;28;20453;-86
2023/06/23 05:47:25;;;;;;;0.98;0.98;;;17.80;99.90;;;;;;5004521;28;20049;-85
2023/06/23 05:49:55;;;;;;;1.00;1.00;;;17.90;99.90;;;;;;5008463;28;20157;-86
2023/06/23 05:52:22;;;;;;;1.00;1.00;;;17.70;99.90;;;;;;4998989;28;20427;-87
2023/06/23 05:54:51;;;;;;;0.90;0.90;;;17.70;99.90;;;;;;5005836;28;20553;-88
2023/06/23 05:57:26;;;;;;;0.77;0.77;;;17.80;99.90;;;;;;5006177;28;20041;-87
2023/06/23 06:00:14;;;;;;;0.80;0.80;;;17.80;99.90;;;;;;5003921;28;20037;-86
2023/06/23 06:02:44;;;;;;;0.70;0.70;;;17.80;99.90;;;;;;4986745;28;20076;-88
2023/06/23 06:05:14;;;;;;;0.73;0.73;;;17.90;99.90;;;;;;5007519;28;20499;-86
2023/06/23 06:07:42;;;;;;;0.68;0.68;;;17.90;99.90;;;;;;5006135;28;20053;-86
2023/06/23 06:10:09;;;;;;;0.68;0.68;;;18.00;99.90;;;;;;5000122;28;20530;-87
2023/06/23 06:12:36;;;;;;;0.70;0.70;;;18.00;99.90;;;;;;5004001;28;20052;-87
2023/06/23 06:15:04;;;;;;;0.70;0.70;;;18.00;99.90;;;;;;5007931;28;20414;-86
2023/06/23 06:17:32;;;;;;;0.70;0.70;;;17.90;99.90;;;;;;5007735;28;20080;-87
2023/06/23 06:20:01;;;;;;;0.70;0.70;;;18.10;99.90;;;;;;5004053;28;20446;-86
2023/06/23 06:22:32;;;;;;;0.70;0.70;;;18.10;99.90;;;;;;5005968;28;20046;-86
2023/06/23 06:24:59;;;;;;;0.70;0.70;;;18.10;99.90;;;;;;5001718;28;20049;-86
2023/06/23 06:27:27;;;;;;;0.70;0.70;;;18.00;99.90;;;;;;4993573;28;20057;-86
2023/06/23 06:29:56;;;;;;;0.80;0.80;;;18.10;99.90;;;;;;4984662;28;20372;-86
2023/06/23 06:32:23;;;;;;;2.53;2.42;;;18.20;99.90;;;;;;4991748;28;20057;-86
2023/06/23 06:34:51;;;;;;;0.80;0.80;;;18.10;99.90;;;;;;5001967;28;20053;-87
2023/06/23 06:37:18;;;;;;;0.63;0.63;;;18.10;99.90;;;;;;4995215;28;20554;-87
2023/06/23 06:39:45;;;;;;;0.60;0.60;;;18.30;99.90;;;;;;5003813;28;20046;-86
2023/06/23 06:42:11;;;;;;;0.70;0.70;;;18.20;99.90;;;;;;5001372;28;20088;-86
2023/06/23 06:44:38;;;;;;;0.63;0.63;;;18.30;99.90;;;;;;4991316;28;20045;-87
2023/06/23 06:47:07;;;;;;;0.95;0.95;;;18.30;99.90;;;;;;5007830;28;20555;-86
2023/06/23 06:49:34;;;;;;;0.98;0.98;;;18.40;99.90;;;;;;4989606;28;20097;-87
2023/06/23 06:52:01;;;;;;;0.93;0.93;;;18.60;99.90;;;;;;4992586;28;20065;-86
2023/06/23 06:54:27;;;;;;;0.85;0.85;;;19.10;99.90;;;;;;4992245;28;20037;-87
2023/06/23 06:56:55;;;;;;;0.80;0.80;;;19.60;99.90;;;;;;4999070;28;20053;-87
2023/06/23 06:59:21;;;;;;;0.80;0.80;;;20.10;99.90;;;;;;4987277;28;20073;-86
2023/06/23 07:01:47;;;;;;;0.80;0.80;;;20.40;99.90;;;;;;4999239;28;20087;-83
2023/06/23 07:04:14;;;;;;;0.70;0.70;;;20.70;99.90;;;;;;5002076;28;20048;-86
2023/06/23 07:06:40;;;;;;;0.70;0.70;;;21.10;99.90;;;;;;5001015;28;20503;-87
2023/06/23 07:09:07;;;;;;;0.70;0.70;;;21.10;99.90;;;;;;4994103;28;20077;-86
2023/06/23 07:11:33;;;;;;;0.70;0.70;;;21.30;99.90;;;;;;5000465;28;20049;-86
2023/06/23 07:13:59;;;;;;;0.70;0.70;;;21.60;99.90;;;;;;5006499;28;20103;-86
2023/06/23 07:16:30;;;;;;;0.70;0.70;;;22.00;99.90;;;;;;5006068;28;20087;-85
2023/06/23 07:18:56;;;;;;;0.65;0.65;;;22.20;99.90;;;;;;4995425;28;20115;-84
2023/06/23 07:21:22;;;;;;;0.70;0.70;;;22.40;99.90;;;;;;5002838;28;20058;-86
2023/06/23 07:23:48;;;;;;;0.70;0.70;;;22.40;99.90;;;;;;5005747;28;20052;-86
2023/06/23 07:26:15;;;;;;;0.90;0.90;;;22.40;99.90;;;;;;5006204;28;20820;-83
2023/06/23 07:28:40;;;;;;;0.88;0.88;;;22.30;99.90;;;;;;5006666;28;20093;-85
2023/06/23 07:31:06;;;;;;;1.05;1.05;;;22.50;99.90;;;;;;5004345;28;20080;-86
2023/06/23 07:33:32;;;;;;;1.88;1.77;;;22.80;99.90;;;;;;4998014;28;20132;-86
2023/06/23 07:35:57;;;;;;;1.30;1.30;;;22.70;99.90;;;;;;5006480;28;20037;-85
2023/06/23 07:38:23;;;;;;;0.80;0.80;;;23.10;99.90;;;;;;5005598;28;20145;-87
2023/06/23 07:40:49;;;;;;;0.90;0.90;;;23.10;99.90;;;;;;5003970;28;20137;-84
2023/06/23 07:43:14;;;;;;;1.40;1.35;;;23.20;99.90;;;;;;5003701;28;20110;-86
2023/06/23 07:45:40;;;;;;;1.45;1.38;;;23.00;99.90;;;;;;5002205;28;20053;-83
2023/06/23 07:48:06;;;;;;;1.45;1.38;;;23.10;99.90;;;;;;5006147;28;20045;-86
2023/06/23 07:50:31;;;;;;;1.77;1.67;;;23.10;99.90;;;;;;5007377;28;20049;-83
2023/06/23 07:52:57;;;;;;;2.25;2.15;;;23.40;99.90;;;;;;4992305;28;20527;-85
2023/06/23 07:55:22;;;;;;;2.45;2.35;;;23.40;99.90;;;;;;5001453;28;20053;-84
2023/06/23 07:57:48;;;;;;;2.65;2.50;;;23.70;99.90;;;;;;5005209;28;20408;-88
2023/06/23 08:00:15;;;;;;;1.35;1.30;;;23.80;99.90;;;;;;4984973;28;20534;-86
2023/06/23 08:02:41;;;;;;;1.50;1.40;;;23.40;99.90;;;;;;5003030;28;20109;-85
2023/06/23 08:05:08;;;;;;;1.00;1.00;;;23.60;99.90;;;;;;5003738;28;20049;-85
2023/06/23 08:07:34;;;;;;;2.13;2.03;;;23.70;99.90;;;;;;5002402;28;20049;-83
2023/06/23 08:09:59;;;;;;;2.78;2.58;;;23.50;99.90;;;;;;4970666;28;20050;-85
2023/06/23 08:12:25;;;;;;;1.63;1.55;;;23.70;99.90;;;;;;4997282;28;20498;-82
2023/06/23 08:14:51;;;;;;;2.83;2.65;;;23.80;99.90;;;;;;5006984;28;20407;-85
2023/06/23 08:17:16;;;;;;;0.30;0.30;;;24.20;99.90;;;;;;5001805;28;20077;-87
2023/06/23 08:19:43;;;;;;;1.23;1.23;;;24.20;99.90;;;;;;4998449;28;20403;-85
2023/06/23 08:22:09;;;;;;;0.32;0.32;;;24.20;99.90;;;;;;5007509;28;20671;-85
2023/06/23 08:24:35;;;;;;;2.00;1.90;;;23.70;99.90;;;;;;5006547;28;20053;-86
2023/06/23 08:27:01;;;;;;;1.92;1.83;;;24.00;99.90;;;;;;5003297;28;20046;-85
2023/06/23 08:29:27;;;;;;;0.80;0.80;;;24.50;99.90;;;;;;5003419;28;20104;-86
2023/06/23 08:31:52;;;;;;;0.57;0.57;;;24.60;99.90;;;;;;5010831;28;20375;-85
2023/06/23 08:34:18;;;;;;;0.65;0.65;;;24.50;99.90;;;;;;5001483;28;20127;-86
2023/06/23 08:36:44;;;;;;;1.58;1.48;;;24.80;99.90;;;;;;4989606;28;20042;-86
2023/06/23 08:39:10;;;;;;;0.30;0.30;;;24.90;99.90;;;;;;5007282;28;20042;-85
2023/06/23 08:41:41;;;;;;;1.20;1.20;;;24.90;99.90;;;;;;5008876;28;20037;-86
2023/06/23 08:44:09;;;;;;;0.30;0.30;;;24.90;99.90;;;;;;4999353;28;20045;-87
2023/06/23 08:46:37;;;;;;;0.47;0.47;;;25.10;99.90;;;;;;5010617;28;20102;-87
2023/06/23 08:49:08;;;;;;;0.35;0.35;;;25.00;99.90;;;;;;5012497;28;20159;-86
2023/06/23 08:51:34;;;;;;;0.30;0.30;;;25.10;99.90;;;;;;4996898;28;20045;-87
2023/06/23 08:54:00;;;;;;;0.30;0.30;;;25.10;99.90;;;;;;4996222;28;20232;-88
2023/06/23 08:56:26;;;;;;;0.30;0.30;;;24.90;99.90;;;;;;5001252;28;20046;-89
2023/06/23 08:58:52;;;;;;;0.32;0.32;;;25.30;99.90;;;;;;5009810;28;20449;-87
2023/06/23 09:01:17;;;;;;;0.30;0.30;;;25.50;99.90;;;;;;5002986;28;20555;-88
2023/06/23 09:03:43;;;;;;;0.30;0.30;;;25.70;99.90;;;;;;5009147;28;20050;-88
2023/06/23 09:06:10;;;;;;;0.30;0.30;;;25.60;99.90;;;;;;5004193;28;20415;-86
2023/06/23 09:08:36;;;;;;;0.30;0.30;;;25.80;99.90;;;;;;5008160;28;20045;-87
2023/06/23 09:11:01;;;;;;;0.30;0.30;;;25.90;99.90;;;;;;4998606;28;20630;-85
2023/06/23 09:13:30;;;;;;;0.30;0.30;;;25.50;99.90;;;;;;5023862;28;20053;-86
2023/06/23 09:15:56;;;;;;;0.30;0.30;;;25.40;99.90;;;;;;4983531;28;20061;-87
2023/06/23 09:18:22;;;;;;;0.30;0.30;;;25.70;99.90;;;;;;5008877;28;20048;-89
2023/06/23 09:20:50;;;;;;;0.30;0.30;;;25.70;99.90;;;;;;5009014;28;20049;-89
2023/06/23 09:23:21;;;;;;;0.30;0.30;;;25.80;99.90;;;;;;5006043;28;20064;-89
2023/06/23 09:25:54;;;;;;;0.40;0.40;;;26.00;99.90;;;;;;5005114;28;20517;-87
2023/06/23 09:28:24;;;;;;;0.20;0.20;;;25.80;99.90;;;;;;5008938;28;20124;-86
2023/06/23 09:30:51;;;;;;;0.30;0.30;;;26.20;99.90;;;;;;5005663;28;20045;-86
2023/06/23 09:33:18;;;;;;;0.30;0.30;;;26.20;99.90;;;;;;5003614;28;20068;-87
2023/06/23 09:35:53;;;;;;;0.30;0.30;;;26.30;99.90;;;;;;5006938;28;20136;-86
2023/06/23 09:38:26;;;;;;;0.30;0.30;;;26.20;99.90;;;;;;5005682;28;20488;-87
2023/06/23 09:41:14;;;;;;;0.30;0.30;;;26.10;99.90;;;;;;5004969;28;20045;-91
2023/06/23 09:43:42;;;;;;;0.20;0.20;;;26.30;99.90;;;;;;5005452;28;20510;-87
2023/06/23 09:46:10;;;;;;;0.30;0.30;;;26.10;99.90;;;;;;5008670;28;20049;-89
2023/06/23 09:48:36;;;;;;;0.30;0.30;;;26.00;99.90;;;;;;5006442;28;20043;-89
2023/06/23 09:51:05;;;;;;;0.30;0.30;;;26.40;99.90;;;;;;5000999;28;20045;-88
2023/06/23 09:53:36;;;;;;;0.30;0.30;;;27.10;99.90;;;;;;5006051;28;20052;-87
2023/06/23 09:56:03;;;;;;;0.40;0.40;;;27.30;99.90;;;;;;5008840;28;20075;-88
2023/06/23 09:58:40;;;;;;;0.30;0.30;;;27.10;99.90;;;;;;5001027;28;20606;-88
2023/06/23 10:01:10;;;;;;;0.30;0.30;;;27.40;99.90;;;;;;5009718;28;20095;-88
2023/06/23 10:03:53;;;;;;;0.30;0.30;;;27.30;99.90;;;;;;5010450;28;20053;-86
2023/06/23 10:06:36;;;;;;;0.25;0.25;;;26.60;99.90;;;;;;5002973;28;20049;-88
2023/06/23 10:09:07;;;;;;;0.30;0.30;;;27.00;99.90;;;;;;5004132;28;20045;-89
2023/06/23 10:11:35;;;;;;;0.30;0.30;;;27.10;99.90;;;;;;5004507;28;20077;-88
2023/06/23 10:14:05;;;;;;;0.20;0.20;;;27.10;99.90;;;;;;5002544;28;20045;-90
2023/06/23 10:16:32;;;;;;;0.28;0.28;;;27.10;99.90;;;;;;5009033;28;20037;-88
2023/06/23 10:18:57;;;;;;;0.20;0.20;;;26.80;99.90;;;;;;5004765;28;20073;-90
2023/06/23 10:21:23;;;;;;;0.30;0.30;;;27.00;99.90;;;;;;5004200;28;20081;-88
2023/06/23 10:23:53;;;;;;;0.50;0.40;;;26.80;99.90;;;;;;5009872;28;20046;-89
2023/06/23 10:26:19;;;;;;;0.30;0.30;;;27.40;99.90;;;;;;5002287;28;20111;-86
2023/06/23 10:28:49;;;;;;;0.30;0.30;;;27.90;99.90;;;;;;5010136;28;20045;-87
2023/06/23 10:31:16;;;;;;;0.30;0.30;;;27.60;99.90;;;;;;5008436;28;20042;-88
2023/06/23 10:33:43;;;;;;;0.40;0.40;;;27.50;99.90;;;;;;5008497;28;20538;-89
2023/06/23 10:36:18;;;;;;;0.30;0.30;;;27.40;99.90;;;;;;5011608;28;20075;-91
2023/06/23 10:38:46;;;;;;;0.30;0.30;;;27.10;99.90;;;;;;5009097;28;20503;-88
2023/06/23 10:41:13;;;;;;;0.30;0.30;;;27.80;99.90;;;;;;4994490;28;20058;-86
2023/06/23 10:43:45;;;;;;;0.30;0.30;;;27.80;99.90;;;;;;5004521;28;20077;-88
2023/06/23 10:46:11;;;;;;;0.30;0.30;;;26.80;99.90;;;;;;5004633;28;20530;-87
2023/06/23 10:48:38;;;;;;;0.30;0.30;;;27.10;99.90;;;;;;4998063;28;20100;-87
2023/06/23 10:51:04;;;;;;;0.30;0.30;;;27.50;99.90;;;;;;5001171;28;20060;-90
2023/06/23 10:53:32;;;;;;;0.30;0.30;;;28.00;99.90;;;;;;5003649;28;20057;-91
2023/06/23 10:55:59;;;;;;;0.30;0.30;;;27.60;99.90;;;;;;4990091;28;20045;-89
2023/06/23 10:58:28;;;;;;;0.30;0.30;;;27.20;99.90;;;;;;5003987;28;20108;-87
2023/06/23 11:00:53;;;;;;;0.30;0.30;;;27.90;99.90;;;;;;4997189;28;20444;-88
2023/06/23 11:03:33;;;;;;;0.30;0.30;;;28.30;99.90;;;;;;5000618;28;20129;-89
2023/06/23 11:06:03;;;;;;;0.28;0.28;;;28.50;99.90;;;;;;5000500;28;20056;-93
2023/06/23 11:08:50;;;;;;;0.40;0.40;;;28.60;99.90;;;;;;4991715;28;20688;-88
2023/06/23 11:11:17;;;;;;;0.40;0.40;;;28.80;99.90;;;;;;5000028;28;20069;-90
2023/06/23 11:13:49;;;;;;;0.20;0.20;;;28.70;99.90;;;;;;4999144;28;20056;-86
2023/06/23 11:16:17;;;;;;;0.25;0.25;;;28.60;99.90;;;;;;5006021;28;20149;-88
2023/06/23 11:18:54;;;;;;;0.35;0.35;;;28.10;99.90;;;;;;5007978;28;20080;-91
2023/06/23 11:21:30;;;;;;;0.30;0.30;;;28.60;99.90;;;;;;5008936;28;20107;-91
2023/06/23 11:24:25;;;;;;;0.30;0.30;;;28.40;99.90;;;;;;5008059;28;20081;-90
2023/06/23 11:27:02;;;;;;;0.30;0.30;;;29.00;99.90;;;;;;4995653;28;20558;-88
2023/06/23 11:29:28;;;;;;;0.30;0.30;;;29.00;99.90;;;;;;5011343;28;20056;-89
2023/06/23 11:32:13;;;;;;;0.20;0.20;;;29.00;99.90;;;;;;5013295;28;20072;-87
2023/06/23 11:34:57;;;;;;;0.20;0.20;;;29.10;99.90;;;;;;5004412;28;20426;-88
2023/06/23 11:37:37;;;;;;;0.30;0.30;;;29.00;99.90;;;;;;5001558;28;20033;-88
2023/06/23 11:40:05;;;;;;;0.30;0.30;;;29.20;99.90;;;;;;4999789;28;20492;-93
2023/06/23 11:42:31;;;;;;;0.30;0.30;;;28.70;99.90;;;;;;5006951;28;20123;-90
2023/06/23 11:45:00;;;;;;;0.30;0.30;;;28.30;99.90;;;;;;4984325;28;20136;-91
2023/06/23 11:47:27;;;;;;;0.20;0.20;;;28.70;99.90;;;;;;4997749;28;20045;-91
2023/06/23 11:49:53;;;;;;;0.30;0.30;;;28.70;99.90;;;;;;5009185;28;20140;-88
2023/06/23 11:52:23;;;;;;;0.25;0.25;;;28.70;99.90;;;;;;5025212;28;20049;-88
2023/06/23 11:54:51;;;;;;;0.20;0.20;;;29.10;99.90;;;;;;5004425;28;20049;-87
2023/06/23 11:57:19;;;;;;;0.30;0.30;;;29.60;99.90;;;;;;5012227;28;20042;-90
2023/06/23 11:59:45;;;;;;;0.22;0.22;;;29.40;99.90;;;;;;5014003;28;20066;-92
2023/06/23 12:02:11;;;;;;;0.28;0.28;;;29.20;99.90;;;;;;5012775;28;20083;-90
2023/06/23 12:04:36;;;;;;;0.30;0.30;;;29.30;99.90;;;;;;5011411;28;20048;-93
2023/06/23 12:07:05;;;;;;;0.30;0.30;;;29.30;99.90;;;;;;5011183;28;20060;-88
2023/06/23 12:09:37;;;;;;;0.30;0.30;;;29.20;99.90;;;;;;5011269;28;20033;-89
2023/06/23 12:12:03;;;;;;;0.20;0.20;;;29.60;99.80;;;;;;4995236;28;20063;-90
2023/06/23 12:14:33;;;;;;;0.20;0.20;;;29.20;99.90;;;;;;5009850;28;20509;-89
2023/06/23 12:17:10;;;;;;;0.30;0.30;;;28.50;99.90;;;;;;5013392;28;20097;-89
2023/06/23 12:19:39;;;;;;;0.30;0.30;;;29.20;99.90;;;;;;4995909;28;20044;-90
2023/06/23 12:22:17;;;;;;;0.30;0.30;;;29.10;99.90;;;;;;5003641;28;20038;-88
2023/06/23 12:24:43;;;;;;;0.20;0.20;;;28.60;99.90;;;;;;5008791;28;20041;-89
2023/06/23 12:27:10;;;;;;;0.20;0.20;;;28.70;99.90;;;;;;4994571;28;20193;-90
2023/06/23 12:29:36;;;;;;;0.30;0.30;;;28.40;99.90;;;;;;5012453;28;20046;-91
2023/06/23 12:32:03;;;;;;;0.20;0.20;;;28.80;99.90;;;;;;4996634;28;20048;-89
2023/06/23 12:34:36;;;;;;;0.30;0.30;;;28.80;99.90;;;;;;5007039;28;20106;-85
2023/06/23 12:37:10;;;;;;;0.30;0.30;;;28.90;98.80;;;;;;5003570;28;20046;-87
2023/06/23 12:39:36;;;;;;;0.20;0.20;;;28.80;99.90;;;;;;5005408;28;20060;-89
2023/06/23 12:42:02;;;;;;;0.30;0.30;;;28.00;99.90;;;;;;5005766;28;20041;-88
2023/06/23 12:44:30;;;;;;;0.30;0.30;;;28.30;99.90;;;;;;5002211;28;20072;-89
2023/06/23 12:46:57;;;;;;;0.30;0.30;;;28.80;99.90;;;;;;5015551;28;20049;-90
2023/06/23 12:49:33;;;;;;;0.30;0.30;;;29.00;99.30;;;;;;5006877;28;20041;-88
2023/06/23 12:52:00;;;;;;;0.30;0.30;;;29.20;99.90;;;;;;4988692;28;20038;-91
2023/06/23 12:54:27;;;;;;;0.28;0.28;;;29.00;99.90;;;;;;4989732;28;20053;-85
2023/06/23 12:56:58;;;;;;;0.30;0.30;;;29.10;99.90;;;;;;5001586;28;20061;-89
2023/06/23 12:59:25;;;;;;;0.30;0.30;;;29.30;99.20;;;;;;5000656;28;20622;-89
2023/06/23 13:01:51;;;;;;;0.30;0.30;;;29.20;99.90;;;;;;5007346;28;20050;-87
2023/06/23 13:04:16;;;;;;;0.30;0.30;;;29.40;99.90;;;;;;4995814;28;20750;-87
2023/06/23 13:06:42;;;;;;;0.25;0.25;;;29.30;99.90;;;;;;5006844;28;20445;-89
2023/06/23 13:09:08;;;;;;;0.30;0.30;;;29.60;99.60;;;;;;4998484;28;20084;-88
2023/06/23 13:11:35;;;;;;;0.30;0.30;;;29.30;99.90;;;;;;5004907;28;20041;-89
2023/06/23 13:14:01;;;;;;;0.35;0.35;;;29.20;99.70;;;;;;5006958;28;20041;-88
2023/06/23 13:16:26;;;;;;;0.30;0.30;;;29.40;97.90;;;;;;5009018;28;20045;-87
2023/06/23 13:18:52;;;;;;;0.30;0.30;;;29.20;97.10;;;;;;5002852;28;20053;-86
2023/06/23 13:21:18;;;;;;;0.20;0.20;;;29.20;97.20;;;;;;5002744;28;20524;-87
2023/06/23 13:23:44;;;;;;;0.30;0.30;;;29.40;98.60;;;;;;5015662;28;20049;-85
2023/06/23 13:26:09;;;;;;;0.30;0.30;;;29.40;96.40;;;;;;5003074;28;20049;-92
2023/06/23 13:28:36;;;;;;;0.20;0.20;;;29.50;97.80;;;;;;5004601;28;20052;-94
2023/06/23 13:31:03;;;;;;;0.20;0.20;;;29.50;98.40;;;;;;4983546;28;20049;-91
2023/06/23 13:33:29;;;;;;;0.20;0.20;;;29.70;98.00;;;;;;5003857;28;20045;-90
2023/06/23 13:35:55;;;;;;;0.20;0.20;;;29.70;96.40;;;;;;4998049;28;20069;-88
2023/06/23 13:38:20;;;;;;;0.30;0.30;;;29.70;96.60;;;;;;5007319;28;20045;-92
2023/06/23 13:40:46;;;;;;;0.30;0.30;;;29.60;95.00;;;;;;4994200;28;20688;-87
2023/06/23 13:43:12;;;;;;;0.30;0.30;;;29.70;97.60;;;;;;4985486;28;20053;-88
2023/06/23 13:45:38;;;;;;;0.20;0.20;;;29.60;98.50;;;;;;5007613;28;20144;-91
2023/06/23 13:48:04;;;;;;;0.20;0.20;;;29.90;97.80;;;;;;4991502;28;20125;-88
2023/06/23 13:50:29;;;;;;;0.20;0.20;;;29.50;98.10;;;;;;5008626;28;20045;-91
2023/06/23 13:52:55;;;;;;;0.30;0.30;;;29.70;96.80;;;;;;5004826;28;20132;-85
2023/06/23 13:55:20;;;;;;;0.20;0.20;;;29.80;97.80;;;;;;5014786;28;20041;-86
2023/06/23 13:57:46;;;;;;;0.20;0.20;;;29.60;95.70;;;;;;5000575;28;20053;-88
2023/06/23 14:00:12;;;;;;;0.30;0.30;;;29.50;95.60;;;;;;5001321;28;20050;-88